Time;durP1;ratioP1;P1;durP2;ratioP2;P2;SDS_P1;SDS_P2;PMS_P1;PMS_P2;Temp;Humidity;BMP_temperature;BMP_pressure;BME280_temperature;BME280_humidity;BME280_pressure;Samples;Min_cycle;Max_cycle;Signal;HPM_P1;HPM_P2
2023/03/12 00:01:11;;;;;;;37.03;8.30;;;;;;;;;;5112402;28;20197;-75
2023/03/12 00:03:39;;;;;;;43.70;8.90;;;;;;;;;;5112361;28;20217;-76
2023/03/12 00:06:06;;;;;;;43.30;8.60;;;;;;;;;;5112583;28;21055;-76
2023/03/12 00:08:33;;;;;;;41.53;8.77;;;;;;;;;;5112470;28;20226;-77
2023/03/12 00:11:06;;;;;;;40.57;8.03;;;;;;;;;;5112563;28;20277;-76
2023/03/12 00:13:33;;;;;;;33.10;6.57;;;;;;;;;;5112032;28;20198;-76
2023/03/12 00:16:03;;;;;;;34.27;6.10;;;;;;;;;;5111926;28;20654;-77
2023/03/12 00:18:30;;;;;;;36.80;6.93;;;;;;;;;;5111317;28;20611;-75
2023/03/12 00:20:58;;;;;;;43.33;7.00;;;;;;;;;;5112219;28;20277;-76
2023/03/12 00:23:25;;;;;;;35.53;7.60;;;;;;;;;;5112456;28;20230;-76
2023/03/12 00:25:52;;;;;;;34.37;7.63;;;;;;;;;;5111557;28;20233;-76
2023/03/12 00:28:21;;;;;;;42.87;8.50;;;;;;;;;;5111816;28;20734;-77
2023/03/12 00:30:48;;;;;;;47.67;7.80;;;;;;;;;;5111673;28;20229;-81
2023/03/12 00:33:15;;;;;;;34.10;6.90;;;;;;;;;;5111637;28;20231;-81
2023/03/12 00:35:42;;;;;;;38.53;7.27;;;;;;;;;;5112089;28;20710;-80
2023/03/12 00:38:09;;;;;;;34.33;6.63;;;;;;;;;;5111441;28;20321;-80
2023/03/12 00:40:38;;;;;;;40.10;7.23;;;;;;;;;;5111653;28;20238;-81
2023/03/12 00:43:05;;;;;;;28.93;5.97;;;;;;;;;;5111626;28;20666;-82
2023/03/12 00:45:33;;;;;;;39.83;6.57;;;;;;;;;;5111304;28;20324;-82
2023/03/12 00:48:01;;;;;;;35.47;7.33;;;;;;;;;;5111636;28;20229;-80
2023/03/12 00:50:28;;;;;;;43.67;6.47;;;;;;;;;;5111873;28;20224;-81
2023/03/12 00:52:56;;;;;;;33.87;6.67;;;;;;;;;;5111472;28;20297;-81
2023/03/12 00:55:23;;;;;;;33.47;6.90;;;;;;;;;;5112083;28;20285;-82
2023/03/12 00:57:51;;;;;;;34.90;7.37;;;;;;;;;;5111562;28;20279;-81
2023/03/12 01:00:18;;;;;;;43.33;7.87;;;;;;;;;;5111837;28;20228;-83
2023/03/12 01:02:47;;;;;;;41.87;7.77;;;;;;;;;;5110948;28;20237;-80
2023/03/12 01:05:14;;;;;;;38.70;7.10;;;;;;;;;;5111465;28;20607;-82
2023/03/12 01:07:42;;;;;;;38.57;7.40;;;;;;;;;;5111889;28;20242;-80
2023/03/12 01:10:10;;;;;;;38.53;6.47;;;;;;;;;;5111038;28;20228;-82
2023/03/12 01:12:37;;;;;;;36.53;6.80;;;;;;;;;;5110843;28;20288;-81
2023/03/12 01:15:04;;;;;;;36.80;6.73;;;;;;;;;;5111651;28;20285;-81
2023/03/12 01:17:32;;;;;;;31.57;6.37;;;;;;;;;;5111234;28;20313;-81
2023/03/12 01:20:00;;;;;;;39.37;6.53;;;;;;;;;;5110786;28;20288;-82
2023/03/12 01:22:27;;;;;;;38.90;6.80;;;;;;;;;;5110957;28;20658;-81
2023/03/12 01:24:55;;;;;;;39.27;6.27;;;;;;;;;;5111395;28;20245;-82
2023/03/12 01:27:22;;;;;;;40.53;7.10;;;;;;;;;;5111387;28;20225;-83
2023/03/12 01:29:49;;;;;;;35.83;6.17;;;;;;;;;;5111527;28;20240;-82
2023/03/12 01:32:17;;;;;;;47.87;7.10;;;;;;;;;;5110932;28;20277;-83
2023/03/12 01:34:45;;;;;;;38.73;6.83;;;;;;;;;;5111151;28;20198;-83
2023/03/12 01:37:13;;;;;;;43.90;6.90;;;;;;;;;;5111081;28;20257;-83
2023/03/12 01:39:40;;;;;;;36.80;6.53;;;;;;;;;;5111025;28;20224;-82
2023/03/12 01:42:08;;;;;;;39.87;6.63;;;;;;;;;;5111216;28;20231;-83
2023/03/12 01:44:49;;;;;;;35.60;6.73;;;;;;;;;;5111579;28;20205;-82
2023/03/12 01:47:17;;;;;;;41.30;6.00;;;;;;;;;;5111135;28;20279;-83
2023/03/12 01:49:44;;;;;;;42.20;5.87;;;;;;;;;;5111324;28;20241;-83
2023/03/12 01:52:13;;;;;;;37.07;6.60;;;;;;;;;;5113118;28;20220;-83
2023/03/12 01:54:44;;;;;;;32.67;6.17;;;;;;;;;;5115331;28;20225;-83
2023/03/12 01:57:12;;;;;;;37.93;6.60;;;;;;;;;;5114212;28;20284;-84
2023/03/12 01:59:42;;;;;;;42.20;7.10;;;;;;;;;;5114210;28;20230;-83
2023/03/12 02:02:10;;;;;;;38.90;7.73;;;;;;;;;;5114890;28;20637;-83
2023/03/12 02:04:38;;;;;;;46.90;9.40;;;;;;;;;;5114959;27;20205;-82
2023/03/12 02:07:06;;;;;;;44.03;8.80;;;;;;;;;;5114621;28;20564;-83
2023/03/12 02:09:35;;;;;;;43.23;9.50;;;;;;;;;;5114694;28;20236;-83
2023/03/12 02:12:03;;;;;;;32.70;7.40;;;;;;;;;;5114430;28;20229;-83
2023/03/12 02:14:31;;;;;;;31.93;6.10;;;;;;;;;;5113813;28;20221;-82
2023/03/12 02:16:58;;;;;;;40.37;6.53;;;;;;;;;;5114379;28;20194;-83
2023/03/12 02:19:31;;;;;;;43.70;7.67;;;;;;;;;;5114455;28;20256;-83
2023/03/12 02:21:59;;;;;;;41.20;6.63;;;;;;;;;;5114280;28;20190;-82
2023/03/12 02:24:28;;;;;;;47.43;7.80;;;;;;;;;;5114243;28;20277;-83
2023/03/12 02:26:58;;;;;;;42.07;7.63;;;;;;;;;;5114183;28;20626;-83
2023/03/12 02:29:25;;;;;;;41.20;7.13;;;;;;;;;;5114474;28;20237;-83
2023/03/12 02:31:54;;;;;;;36.70;7.67;;;;;;;;;;5114488;28;20229;-83
2023/03/12 02:34:21;;;;;;;36.10;6.47;;;;;;;;;;5114450;28;20284;-83
2023/03/12 02:36:49;;;;;;;39.03;7.80;;;;;;;;;;5114321;28;20197;-83
2023/03/12 02:39:18;;;;;;;51.63;7.60;;;;;;;;;;5113898;28;20312;-83
2023/03/12 02:41:46;;;;;;;44.63;7.90;;;;;;;;;;5114335;28;20314;-82
2023/03/12 02:44:17;;;;;;;34.93;7.33;;;;;;;;;;5113797;28;20225;-82
2023/03/12 02:46:45;;;;;;;40.40;7.13;;;;;;;;;;5113438;28;20730;-82
2023/03/12 02:49:13;;;;;;;42.50;7.83;;;;;;;;;;5113464;28;20681;-83
2023/03/12 02:51:41;;;;;;;44.00;7.37;;;;;;;;;;5113675;28;20232;-82
2023/03/12 02:54:09;;;;;;;39.20;6.53;;;;;;;;;;5113570;28;20226;-83
2023/03/12 02:56:36;;;;;;;40.07;7.00;;;;;;;;;;5113425;28;20285;-82
2023/03/12 02:59:04;;;;;;;41.03;7.47;;;;;;;;;;5113069;28;20275;-82
2023/03/12 03:01:32;;;;;;;40.10;7.20;;;;;;;;;;5113246;28;20288;-83
2023/03/12 03:04:00;;;;;;;38.47;7.60;;;;;;;;;;5113280;28;20677;-82
2023/03/12 03:06:27;;;;;;;34.40;6.33;;;;;;;;;;5113153;28;20707;-83
2023/03/12 03:08:54;;;;;;;39.87;6.57;;;;;;;;;;5105881;28;20274;-83
2023/03/12 03:11:25;;;;;;;43.30;5.83;;;;;;;;;;5100559;28;20209;-82
2023/03/12 03:13:53;;;;;;;35.07;6.30;;;;;;;;;;5112018;28;20217;-82
2023/03/12 03:16:20;;;;;;;31.53;5.77;;;;;;;;;;5112716;28;20197;-82
2023/03/12 03:18:49;;;;;;;40.83;7.57;;;;;;;;;;5113542;28;20672;-82
2023/03/12 03:21:16;;;;;;;43.73;6.80;;;;;;;;;;5112664;28;20682;-82
2023/03/12 03:23:44;;;;;;;36.20;7.13;;;;;;;;;;5113140;28;20220;-83
2023/03/12 03:26:11;;;;;;;44.27;7.00;;;;;;;;;;5112616;28;20292;-83
2023/03/12 03:28:38;;;;;;;38.33;6.43;;;;;;;;;;5112865;28;20229;-82
2023/03/12 03:31:06;;;;;;;36.33;6.00;;;;;;;;;;5113145;28;20194;-83
2023/03/12 03:33:34;;;;;;;42.40;5.87;;;;;;;;;;5112783;28;20288;-83
2023/03/12 03:36:03;;;;;;;41.00;6.57;;;;;;;;;;5112766;28;20236;-82
2023/03/12 03:38:31;;;;;;;34.90;6.13;;;;;;;;;;5112815;28;20247;-82
2023/03/12 03:40:58;;;;;;;34.23;6.10;;;;;;;;;;5112778;28;20329;-83
2023/03/12 03:43:25;;;;;;;44.10;6.70;;;;;;;;;;5112506;28;20203;-82
2023/03/12 03:45:57;;;;;;;50.40;7.67;;;;;;;;;;5112558;28;20262;-83
2023/03/12 03:48:24;;;;;;;35.10;7.17;;;;;;;;;;5112330;28;20638;-82
2023/03/12 03:50:52;;;;;;;35.77;6.77;;;;;;;;;;5112602;28;20283;-82
2023/03/12 03:53:21;;;;;;;33.80;6.70;;;;;;;;;;5112398;28;20281;-82
2023/03/12 03:55:48;;;;;;;39.33;6.93;;;;;;;;;;5112933;28;20236;-83
2023/03/12 03:58:15;;;;;;;40.47;6.50;;;;;;;;;;5112343;28;20792;-82
2023/03/12 04:00:44;;;;;;;39.10;6.47;;;;;;;;;;5112180;28;20190;-82
2023/03/12 04:03:12;;;;;;;40.57;6.63;;;;;;;;;;5112052;28;20220;-82
2023/03/12 04:05:43;;;;;;;33.30;5.80;;;;;;;;;;5112589;28;20220;-82
2023/03/12 04:08:11;;;;;;;34.43;5.77;;;;;;;;;;5112006;28;20296;-82
2023/03/12 04:10:40;;;;;;;39.33;6.43;;;;;;;;;;5111788;28;20230;-83
2023/03/12 04:13:07;;;;;;;30.77;5.93;;;;;;;;;;5111778;28;20348;-82
2023/03/12 04:15:34;;;;;;;35.43;5.53;;;;;;;;;;5111443;28;20190;-82
2023/03/12 04:18:02;;;;;;;37.17;5.93;;;;;;;;;;5111788;28;20293;-82
2023/03/12 04:20:29;;;;;;;35.27;6.00;;;;;;;;;;5112026;28;20222;-82
2023/03/12 04:22:57;;;;;;;35.97;6.37;;;;;;;;;;5111948;28;20209;-82
2023/03/12 04:25:24;;;;;;;41.20;5.73;;;;;;;;;;5111455;28;20198;-83
2023/03/12 04:27:53;;;;;;;37.30;5.23;;;;;;;;;;5111965;28;20611;-83
2023/03/12 04:30:20;;;;;;;35.33;5.50;;;;;;;;;;5112114;28;20284;-82
2023/03/12 04:32:47;;;;;;;33.53;4.93;;;;;;;;;;5111621;28;20204;-82
2023/03/12 04:35:14;;;;;;;34.40;5.73;;;;;;;;;;5111516;28;20738;-82
2023/03/12 04:37:41;;;;;;;32.10;5.13;;;;;;;;;;5111968;28;20197;-82
2023/03/12 04:40:11;;;;;;;43.47;5.67;;;;;;;;;;5111307;28;20274;-83
2023/03/12 04:42:38;;;;;;;40.93;5.80;;;;;;;;;;5111683;28;20343;-82
2023/03/12 04:45:07;;;;;;;37.27;6.23;;;;;;;;;;5111757;28;20674;-82
2023/03/12 04:47:35;;;;;;;37.13;5.20;;;;;;;;;;5111574;28;20277;-82
2023/03/12 04:50:02;;;;;;;33.70;5.33;;;;;;;;;;5112151;28;20194;-82
2023/03/12 04:52:29;;;;;;;43.97;6.23;;;;;;;;;;5111753;28;20292;-82
2023/03/12 04:54:58;;;;;;;45.47;5.83;;;;;;;;;;5111210;28;20280;-82
2023/03/12 04:57:25;;;;;;;38.67;5.83;;;;;;;;;;5111651;28;20263;-82
2023/03/12 04:59:53;;;;;;;41.57;6.43;;;;;;;;;;5109996;28;20731;-81
2023/03/12 05:02:21;;;;;;;42.03;6.20;;;;;;;;;;5111713;28;20347;-82
2023/03/12 05:04:49;;;;;;;33.90;5.53;;;;;;;;;;5111476;28;20202;-83
2023/03/12 05:07:16;;;;;;;39.80;5.83;;;;;;;;;;5111535;28;20219;-82
2023/03/12 05:09:45;;;;;;;34.57;5.60;;;;;;;;;;5111420;28;20284;-82
2023/03/12 05:12:12;;;;;;;30.53;5.97;;;;;;;;;;5111424;28;20225;-82
2023/03/12 05:14:39;;;;;;;46.93;5.87;;;;;;;;;;5111405;28;20289;-83
2023/03/12 05:17:06;;;;;;;45.00;6.93;;;;;;;;;;5111640;28;20238;-83
2023/03/12 05:19:35;;;;;;;46.40;6.53;;;;;;;;;;5111824;28;20316;-82
2023/03/12 05:22:02;;;;;;;43.77;7.53;;;;;;;;;;5111136;28;20741;-82
2023/03/12 05:24:29;;;;;;;45.50;7.13;;;;;;;;;;5111103;28;20213;-82
2023/03/12 05:26:56;;;;;;;41.07;6.27;;;;;;;;;;5115296;28;20247;-82
2023/03/12 05:29:24;;;;;;;37.07;5.90;;;;;;;;;;5115118;28;20285;-83
2023/03/12 05:31:51;;;;;;;39.33;6.10;;;;;;;;;;5115290;28;20221;-82
2023/03/12 05:34:18;;;;;;;37.20;5.93;;;;;;;;;;5115885;28;20230;-82
2023/03/12 05:36:47;;;;;;;34.43;5.67;;;;;;;;;;5114673;28;20285;-82
2023/03/12 05:39:14;;;;;;;45.47;6.20;;;;;;;;;;5115237;28;20344;-82
2023/03/12 05:41:41;;;;;;;38.17;6.20;;;;;;;;;;5115236;28;20627;-81
2023/03/12 05:44:11;;;;;;;29.47;5.47;;;;;;;;;;5115326;28;20293;-82
2023/03/12 05:46:38;;;;;;;33.90;5.63;;;;;;;;;;5114610;28;20233;-82
2023/03/12 05:49:05;;;;;;;41.43;6.03;;;;;;;;;;5115295;28;20284;-82
2023/03/12 05:51:32;;;;;;;41.93;5.77;;;;;;;;;;5114976;28;20225;-82
2023/03/12 05:54:01;;;;;;;46.83;6.23;;;;;;;;;;5115302;28;20299;-83
2023/03/12 05:56:28;;;;;;;38.47;5.83;;;;;;;;;;5114720;28;20235;-83
2023/03/12 05:58:55;;;;;;;43.13;6.17;;;;;;;;;;5115171;28;20249;-81
2023/03/12 06:01:24;;;;;;;40.80;5.60;;;;;;;;;;5114453;28;20285;-82
2023/03/12 06:03:51;;;;;;;37.17;6.27;;;;;;;;;;5114793;28;20226;-82
2023/03/12 06:06:18;;;;;;;41.60;6.47;;;;;;;;;;5114600;28;20274;-82
2023/03/12 06:08:46;;;;;;;47.60;5.93;;;;;;;;;;5114658;28;20217;-81
2023/03/12 06:11:15;;;;;;;44.27;6.37;;;;;;;;;;5114734;27;20197;-81
2023/03/12 06:13:42;;;;;;;63.23;7.60;;;;;;;;;;5114748;28;20281;-82
2023/03/12 06:16:11;;;;;;;70.57;9.43;;;;;;;;;;5114350;28;20280;-82
2023/03/12 06:18:38;;;;;;;51.73;8.63;;;;;;;;;;5114525;28;20645;-82
2023/03/12 06:21:09;;;;;;;62.73;8.07;;;;;;;;;;5113915;28;20276;-83
2023/03/12 06:23:37;;;;;;;62.93;7.57;;;;;;;;;;5114390;28;20224;-82
2023/03/12 06:26:04;;;;;;;79.17;7.17;;;;;;;;;;5114415;28;20255;-82
2023/03/12 06:28:33;;;;;;;63.70;7.47;;;;;;;;;;5114926;28;20225;-82
2023/03/12 06:31:01;;;;;;;67.13;7.60;;;;;;;;;;5114410;28;20236;-82
2023/03/12 06:33:28;;;;;;;44.73;6.33;;;;;;;;;;5114001;28;20300;-82
2023/03/12 06:35:55;;;;;;;44.30;6.43;;;;;;;;;;5113898;28;20231;-82
2023/03/12 06:38:23;;;;;;;50.13;6.50;;;;;;;;;;5113595;28;20223;-83
2023/03/12 06:40:57;;;;;;;49.70;7.20;;;;;;;;;;5114305;28;20660;-82
2023/03/12 06:43:25;;;;;;;54.20;7.17;;;;;;;;;;5113889;28;20220;-82
2023/03/12 06:45:54;;;;;;;49.57;7.10;;;;;;;;;;5113701;28;20233;-82
2023/03/12 06:48:22;;;;;;;47.33;7.00;;;;;;;;;;5114003;28;20272;-82
2023/03/12 06:50:49;;;;;;;50.73;7.60;;;;;;;;;;5113575;28;20745;-82
2023/03/12 06:53:16;;;;;;;40.07;7.40;;;;;;;;;;5113741;28;20285;-83
2023/03/12 06:55:44;;;;;;;46.07;6.80;;;;;;;;;;5113821;28;20225;-82
2023/03/12 06:58:11;;;;;;;43.37;6.53;;;;;;;;;;5113842;28;20289;-83
2023/03/12 07:00:38;;;;;;;45.13;7.10;;;;;;;;;;5113406;28;20278;-82
2023/03/12 07:03:07;;;;;;;34.43;6.50;;;;;;;;;;5113877;27;20647;-82
2023/03/12 07:05:34;;;;;;;47.77;6.87;;;;;;;;;;5113262;28;20274;-82
2023/03/12 07:08:01;;;;;;;43.80;6.40;;;;;;;;;;5113298;28;20288;-83
2023/03/12 07:10:29;;;;;;;42.57;6.90;;;;;;;;;;5113661;27;20236;-82
2023/03/12 07:12:56;;;;;;;38.67;7.17;;;;;;;;;;5113429;28;20202;-83
2023/03/12 07:15:24;;;;;;;47.30;7.20;;;;;;;;;;5113411;28;20239;-82
2023/03/12 07:17:51;;;;;;;41.00;6.80;;;;;;;;;;5113412;28;20288;-83
2023/03/12 07:20:20;;;;;;;46.17;6.90;;;;;;;;;;5113083;28;20312;-82
2023/03/12 07:22:47;;;;;;;45.57;6.90;;;;;;;;;;5113054;28;20748;-82
2023/03/12 07:25:14;;;;;;;38.53;6.90;;;;;;;;;;5112930;28;20237;-82
2023/03/12 07:27:41;;;;;;;40.77;7.27;;;;;;;;;;5113059;28;20201;-83
2023/03/12 07:30:10;;;;;;;46.53;7.30;;;;;;;;;;5113250;28;20229;-82
2023/03/12 07:32:37;;;;;;;48.33;6.93;;;;;;;;;;5112928;28;20236;-82
2023/03/12 07:35:05;;;;;;;45.70;7.20;;;;;;;;;;5112584;28;20202;-82
2023/03/12 07:37:33;;;;;;;48.47;6.57;;;;;;;;;;5113007;28;20221;-83
2023/03/12 07:40:00;;;;;;;42.60;6.83;;;;;;;;;;5112947;28;20349;-82
2023/03/12 07:42:28;;;;;;;39.97;6.13;;;;;;;;;;5112507;27;20804;-83
2023/03/12 07:44:55;;;;;;;57.83;7.40;;;;;;;;;;5112731;28;20264;-82
2023/03/12 07:47:22;;;;;;;44.00;7.63;;;;;;;;;;5112526;28;20773;-83
2023/03/12 07:49:49;;;;;;;47.57;7.27;;;;;;;;;;5111591;28;20254;-82
2023/03/12 07:52:18;;;;;;;52.10;7.30;;;;;;;;;;5112837;28;20765;-81
2023/03/12 07:54:47;;;;;;;48.73;8.00;;;;;;;;;;5112491;28;20240;-81
2023/03/12 07:57:14;;;;;;;43.33;7.13;;;;;;;;;;5112384;28;20225;-81
2023/03/12 07:59:42;;;;;;;45.70;7.60;;;;;;;;;;5112787;28;20257;-80
2023/03/12 08:02:10;;;;;;;41.23;7.00;;;;;;;;;;5111861;28;20232;-81
2023/03/12 08:04:37;;;;;;;51.00;6.83;;;;;;;;;;5112314;28;20229;-81
2023/03/12 08:07:04;;;;;;;44.17;7.20;;;;;;;;;;5112213;28;20297;-81
2023/03/12 08:09:32;;;;;;;37.50;6.70;;;;;;;;;;5112616;28;20213;-81
2023/03/12 08:12:00;;;;;;;44.23;7.07;;;;;;;;;;5112183;28;20202;-82
2023/03/12 08:14:30;;;;;;;46.03;7.17;;;;;;;;;;5112446;28;20302;-82
2023/03/12 08:16:57;;;;;;;39.57;6.40;;;;;;;;;;5111391;28;20570;-81
2023/03/12 08:19:25;;;;;;;37.77;6.67;;;;;;;;;;5112016;28;20229;-80
2023/03/12 08:21:53;;;;;;;27.70;6.60;;;;;;;;;;5111858;28;20193;-81
2023/03/12 08:24:21;;;;;;;35.27;6.77;;;;;;;;;;5111005;28;20824;-81
2023/03/12 08:26:48;;;;;;;43.03;6.90;;;;;;;;;;5091578;28;20252;-80
2023/03/12 08:29:17;;;;;;;33.30;6.47;;;;;;;;;;5091838;28;20222;-82
2023/03/12 08:31:44;;;;;;;34.10;6.60;;;;;;;;;;5091190;28;20289;-80
2023/03/12 08:34:12;;;;;;;41.47;6.23;;;;;;;;;;5092578;28;20285;-79
2023/03/12 08:36:39;;;;;;;30.67;6.10;;;;;;;;;;5091386;28;20755;-79
2023/03/12 08:39:06;;;;;;;29.60;5.57;;;;;;;;;;5091876;28;20240;-79
2023/03/12 08:41:33;;;;;;;35.77;6.30;;;;;;;;;;5091482;28;20206;-79
2023/03/12 08:44:01;;;;;;;27.10;5.93;;;;;;;;;;5091150;28;20244;-79
2023/03/12 08:46:29;;;;;;;25.25;6.05;;;;;;;;;;5091260;28;20411;-79
2023/03/12 08:48:57;;;;;;;29.02;5.35;;;;;;;;;;5091441;28;20305;-79
2023/03/12 08:51:24;;;;;;;19.65;4.28;;;;;;;;;;5091350;28;20755;-81
2023/03/12 08:53:51;;;;;;;20.90;4.68;;;;;;;;;;5090944;28;20617;-81
2023/03/12 08:56:19;;;;;;;20.75;5.35;;;;;;;;;;5091569;28;20198;-81
2023/03/12 08:58:46;;;;;;;21.25;6.03;;;;;;;;;;5090529;28;20681;-81
2023/03/12 09:01:14;;;;;;;17.15;4.40;;;;;;;;;;5095236;28;20230;-80
2023/03/12 09:03:43;;;;;;;20.10;4.65;;;;;;;;;;5097804;28;20595;-81
2023/03/12 09:06:12;;;;;;;22.98;5.88;;;;;;;;;;5098256;28;20198;-83
2023/03/12 09:08:39;;;;;;;22.20;5.97;;;;;;;;;;5098240;28;20277;-81
2023/03/12 09:11:07;;;;;;;17.75;4.50;;;;;;;;;;5097686;28;20288;-80
2023/03/12 09:13:34;;;;;;;22.88;5.72;;;;;;;;;;5114683;28;20288;-81
2023/03/12 09:16:02;;;;;;;23.38;5.35;;;;;;;;;;5117981;27;20284;-80
2023/03/12 09:18:30;;;;;;;21.83;5.10;;;;;;;;;;5118354;27;20292;-80
2023/03/12 09:20:58;;;;;;;26.15;5.70;;;;;;;;;;5117966;27;20221;-83
2023/03/12 09:23:26;;;;;;;22.95;5.25;;;;;;;;;;5112555;27;20289;-83
2023/03/12 09:25:53;;;;;;;19.10;5.15;;;;;;;;;;5097596;28;20237;-84
2023/03/12 09:28:21;;;;;;;22.27;5.13;;;;;;;;;;5097368;28;20214;-84
2023/03/12 09:30:49;;;;;;;19.80;5.38;;;;;;;;;;5097364;28;20775;-85
2023/03/12 09:33:17;;;;;;;21.35;4.53;;;;;;;;;;5097596;28;20608;-85
2023/03/12 09:35:44;;;;;;;26.17;5.40;;;;;;;;;;5103898;28;20197;-84
2023/03/12 09:38:15;;;;;;;22.10;5.25;;;;;;;;;;5111212;27;20820;-84
2023/03/12 09:40:47;;;;;;;27.33;5.30;;;;;;;;;;5110076;28;20225;-87
2023/03/12 09:43:31;;;;;;;24.27;5.32;;;;;;;;;;5119929;27;20229;-84
2023/03/12 09:45:59;;;;;;;20.08;5.10;;;;;;;;;;5118064;27;20229;-85
2023/03/12 09:48:28;;;;;;;23.83;4.65;;;;;;;;;;5118640;27;20225;-84
2023/03/12 09:50:56;;;;;;;21.42;4.72;;;;;;;;;;5113025;27;20280;-82
2023/03/12 09:53:28;;;;;;;20.13;4.63;;;;;;;;;;5116620;28;20236;-83
2023/03/12 09:55:56;;;;;;;19.55;4.85;;;;;;;;;;5116950;27;20243;-85
2023/03/12 09:58:26;;;;;;;20.83;4.75;;;;;;;;;;5117062;28;20289;-85
2023/03/12 10:00:55;;;;;;;23.23;4.60;;;;;;;;;;5115300;27;20233;-86
2023/03/12 10:03:49;;;;;;;21.23;4.80;;;;;;;;;;5117840;27;20225;-86
2023/03/12 10:06:18;;;;;;;23.40;5.30;;;;;;;;;;5118343;28;20280;-86
2023/03/12 10:08:54;;;;;;;20.08;4.18;;;;;;;;;;5130521;27;20193;-87
2023/03/12 10:11:28;;;;;;;16.25;3.78;;;;;;;;;;5118541;27;20293;-86
2023/03/12 10:14:03;;;;;;;21.25;4.82;;;;;;;;;;5114150;28;20292;-85
2023/03/12 10:16:36;;;;;;;21.88;4.78;;;;;;;;;;5119573;27;20200;-86
2023/03/12 10:19:12;;;;;;;20.52;4.20;;;;;;;;;;5123411;27;20763;-84
2023/03/12 10:21:43;;;;;;;23.50;5.13;;;;;;;;;;5113886;28;20312;-88
2023/03/12 10:24:21;;;;;;;18.88;3.95;;;;;;;;;;5114519;28;20228;-86
2023/03/12 10:26:50;;;;;;;22.20;4.75;;;;;;;;;;5105917;27;20209;-83
2023/03/12 10:29:19;;;;;;;19.45;3.88;;;;;;;;;;5116807;27;20220;-84
2023/03/12 10:31:49;;;;;;;24.00;4.50;;;;;;;;;;5119783;27;20229;-85
2023/03/12 10:34:19;;;;;;;18.60;4.15;;;;;;;;;;5119683;27;20670;-87
2023/03/12 10:36:46;;;;;;;20.58;4.70;;;;;;;;;;5117119;27;20251;-86
2023/03/12 10:39:15;;;;;;;21.70;4.47;;;;;;;;;;5114363;28;20198;-86
2023/03/12 10:41:45;;;;;;;21.65;4.57;;;;;;;;;;5118260;27;20583;-86
2023/03/12 10:44:17;;;;;;;21.63;4.20;;;;;;;;;;5120290;27;20857;-86
2023/03/12 10:46:59;;;;;;;22.27;4.20;;;;;;;;;;5107468;28;20304;-84
2023/03/12 10:49:28;;;;;;;18.48;4.30;;;;;;;;;;5121048;27;20207;-89
2023/03/12 10:51:56;;;;;;;16.75;3.83;;;;;;;;;;5116951;27;20292;-84
2023/03/12 10:54:27;;;;;;;17.48;4.03;;;;;;;;;;5093724;28;20277;-82
2023/03/12 10:56:56;;;;;;;18.23;4.22;;;;;;;;;;5108576;27;20296;-80
2023/03/12 10:59:26;;;;;;;21.15;4.00;;;;;;;;;;5113370;27;20281;-82
2023/03/12 11:01:53;;;;;;;17.23;3.95;;;;;;;;;;5112640;28;20316;-82
2023/03/12 11:04:24;;;;;;;26.58;5.38;;;;;;;;;;5112715;28;20285;-81
2023/03/12 11:07:15;;;;;;;19.75;4.35;;;;;;;;;;5113246;28;20221;-80
2023/03/12 11:09:42;;;;;;;22.42;4.22;;;;;;;;;;5112881;28;20232;-81
2023/03/12 11:12:25;;;;;;;21.73;4.60;;;;;;;;;;5112529;28;20616;-81
2023/03/12 11:14:52;;;;;;;21.20;4.45;;;;;;;;;;5112599;27;20280;-81
2023/03/12 11:17:21;;;;;;;20.92;4.30;;;;;;;;;;5113437;27;20225;-80
2023/03/12 11:19:48;;;;;;;19.13;5.15;;;;;;;;;;5111449;27;21001;-80
2023/03/12 11:22:27;;;;;;;23.83;4.80;;;;;;;;;;5111722;28;20694;-80
2023/03/12 11:24:58;;;;;;;19.17;4.50;;;;;;;;;;5107994;28;20254;-83
2023/03/12 11:27:31;;;;;;;22.70;5.10;;;;;;;;;;5109068;28;20741;-81
2023/03/12 11:29:59;;;;;;;19.33;4.80;;;;;;;;;;5104624;28;20295;-79
2023/03/12 11:32:31;;;;;;;20.27;4.70;;;;;;;;;;5094513;28;20226;-82
2023/03/12 11:34:59;;;;;;;20.02;4.43;;;;;;;;;;5109656;28;20217;-81
2023/03/12 11:37:31;;;;;;;17.98;4.70;;;;;;;;;;5112295;28;20255;-81
2023/03/12 11:40:05;;;;;;;20.35;4.40;;;;;;;;;;5111730;28;20271;-81
2023/03/12 11:42:39;;;;;;;17.42;4.55;;;;;;;;;;5109259;28;20198;-79
2023/03/12 11:45:08;;;;;;;15.38;3.85;;;;;;;;;;5111440;28;20259;-80
2023/03/12 11:47:45;;;;;;;21.02;3.97;;;;;;;;;;5104889;28;20630;-80
2023/03/12 11:50:16;;;;;;;18.20;4.13;;;;;;;;;;5092111;28;20190;-78
2023/03/12 11:52:49;;;;;;;20.25;4.50;;;;;;;;;;5091723;28;20281;-80
2023/03/12 11:55:18;;;;;;;20.25;4.47;;;;;;;;;;5100489;28;20292;-80
2023/03/12 11:57:52;;;;;;;23.67;4.72;;;;;;;;;;5112009;28;20217;-78
2023/03/12 12:00:21;;;;;;;19.42;3.90;;;;;;;;;;5108315;28;20237;-81
2023/03/12 12:03:03;;;;;;;21.73;4.50;;;;;;;;;;5111878;28;20205;-80
2023/03/12 12:05:38;;;;;;;22.20;4.38;;;;;;;;;;5111031;28;20208;-79
2023/03/12 12:08:10;;;;;;;19.88;4.30;;;;;;;;;;5100089;28;20225;-80
2023/03/12 12:10:40;;;;;;;19.75;4.10;;;;;;;;;;5098613;28;20783;-80
2023/03/12 12:13:11;;;;;;;22.95;4.25;;;;;;;;;;5110709;28;20239;-79
2023/03/12 12:15:43;;;;;;;23.42;4.63;;;;;;;;;;5110315;28;20713;-80
2023/03/12 12:18:22;;;;;;;22.23;4.43;;;;;;;;;;5110662;28;20678;-79
2023/03/12 12:20:54;;;;;;;20.10;4.35;;;;;;;;;;5099454;28;20722;-80
2023/03/12 12:23:26;;;;;;;18.33;3.80;;;;;;;;;;5110340;27;20229;-79
2023/03/12 12:25:58;;;;;;;21.00;4.43;;;;;;;;;;5109499;28;20273;-81
2023/03/12 12:28:38;;;;;;;26.67;4.45;;;;;;;;;;5111145;28;20289;-80
2023/03/12 12:31:16;;;;;;;19.27;4.43;;;;;;;;;;5091979;28;20293;-80
2023/03/12 12:33:53;;;;;;;25.90;5.13;;;;;;;;;;5091012;28;20233;-80
2023/03/12 12:36:20;;;;;;;21.65;4.03;;;;;;;;;;5110139;28;20288;-80
2023/03/12 12:38:50;;;;;;;20.00;4.80;;;;;;;;;;5112458;27;20646;-80
2023/03/12 12:41:19;;;;;;;22.85;4.10;;;;;;;;;;5114699;27;20328;-80
2023/03/12 12:43:49;;;;;;;17.75;3.72;;;;;;;;;;5111530;28;20197;-80
2023/03/12 12:46:17;;;;;;;19.30;4.60;;;;;;;;;;5108199;28;20326;-81
2023/03/12 12:48:47;;;;;;;21.65;4.82;;;;;;;;;;5101817;28;20281;-81
2023/03/12 12:51:16;;;;;;;16.42;3.75;;;;;;;;;;5108369;28;20284;-79
2023/03/12 12:53:47;;;;;;;18.77;4.57;;;;;;;;;;5102924;28;20276;-80
2023/03/12 12:56:17;;;;;;;20.65;5.05;;;;;;;;;;5108488;28;20233;-80
2023/03/12 12:58:53;;;;;;;22.08;4.18;;;;;;;;;;5109900;28;20190;-83
2023/03/12 13:01:21;;;;;;;22.60;4.33;;;;;;;;;;5109027;28;20312;-82
2023/03/12 13:03:49;;;;;;;16.88;3.72;;;;;;;;;;5109480;28;20193;-85
2023/03/12 13:06:16;;;;;;;20.67;4.78;;;;;;;;;;5109373;28;20289;-82
2023/03/12 13:09:00;;;;;;;15.70;3.60;;;;;;;;;;5109363;28;20226;-80
2023/03/12 13:11:31;;;;;;;21.15;4.10;;;;;;;;;;5109535;28;20254;-79
2023/03/12 13:14:20;;;;;;;17.98;3.60;;;;;;;;;;5109586;28;20270;-80
2023/03/12 13:16:48;;;;;;;16.77;3.80;;;;;;;;;;5108729;28;20212;-79
2023/03/12 13:19:28;;;;;;;19.33;3.83;;;;;;;;;;5109441;28;20257;-80
2023/03/12 13:22:01;;;;;;;18.13;3.92;;;;;;;;;;5104697;28;20684;-79
2023/03/12 13:24:31;;;;;;;16.83;3.50;;;;;;;;;;5110526;28;20197;-79
2023/03/12 13:27:01;;;;;;;14.75;3.60;;;;;;;;;;5111699;28;20213;-80
2023/03/12 13:29:40;;;;;;;16.55;3.45;;;;;;;;;;5111295;28;20280;-81
2023/03/12 13:32:10;;;;;;;16.38;3.40;;;;;;;;;;5092748;28;20323;-80
2023/03/12 13:34:46;;;;;;;17.90;4.22;;;;;;;;;;5108159;28;20206;-80
2023/03/12 13:37:32;;;;;;;19.23;3.45;;;;;;;;;;5110208;28;20218;-78
2023/03/12 13:40:09;;;;;;;15.70;3.33;;;;;;;;;;5098846;28;20329;-79
2023/03/12 13:42:41;;;;;;;16.13;3.83;;;;;;;;;;5090618;28;20226;-78
2023/03/12 13:45:30;;;;;;;17.80;3.40;;;;;;;;;;5103751;28;20239;-78
2023/03/12 13:48:00;;;;;;;13.05;3.10;;;;;;;;;;5109996;28;20548;-78
2023/03/12 13:50:28;;;;;;;16.63;3.38;;;;;;;;;;5115077;27;20297;-80
2023/03/12 13:53:02;;;;;;;19.67;3.33;;;;;;;;;;5115139;28;20232;-79
2023/03/12 13:55:30;;;;;;;10.75;2.67;;;;;;;;;;5114681;28;20625;-80
2023/03/12 13:58:08;;;;;;;18.48;3.97;;;;;;;;;;5114796;28;20617;-79
2023/03/12 14:00:38;;;;;;;21.25;6.07;;;;;;;;;;5113412;28;20612;-80
2023/03/12 14:03:10;;;;;;;14.43;3.47;;;;;;;;;;5113356;28;20324;-80
2023/03/12 14:05:44;;;;;;;15.95;3.67;;;;;;;;;;5116878;27;20237;-80
2023/03/12 14:08:15;;;;;;;18.00;3.63;;;;;;;;;;5124686;27;20198;-80
2023/03/12 14:10:56;;;;;;;18.77;4.78;;;;;;;;;;5113538;27;20727;-80
2023/03/12 14:13:32;;;;;;;16.88;3.53;;;;;;;;;;5114368;28;20236;-80
2023/03/12 14:16:05;;;;;;;17.20;3.65;;;;;;;;;;5113491;28;20654;-80
2023/03/12 14:18:35;;;;;;;17.23;3.87;;;;;;;;;;5106816;28;20297;-80
2023/03/12 14:21:04;;;;;;;19.23;3.70;;;;;;;;;;5106481;27;20206;-81
2023/03/12 14:23:33;;;;;;;18.97;4.13;;;;;;;;;;5114827;27;20229;-80
2023/03/12 14:26:02;;;;;;;15.93;4.07;;;;;;;;;;5111957;28;20281;-81
2023/03/12 14:28:31;;;;;;;16.67;4.17;;;;;;;;;;5110794;28;20198;-80
2023/03/12 14:31:00;;;;;;;14.03;4.00;;;;;;;;;;5113970;28;20560;-80
2023/03/12 14:33:32;;;;;;;19.43;4.93;;;;;;;;;;5111770;28;20198;-80
2023/03/12 14:36:03;;;;;;;14.53;3.90;;;;;;;;;;5112098;28;20197;-79
2023/03/12 14:38:31;;;;;;;18.23;3.83;;;;;;;;;;5102599;28;20208;-80
2023/03/12 14:41:02;;;;;;;13.27;2.80;;;;;;;;;;5111094;28;20217;-81
2023/03/12 14:43:30;;;;;;;16.13;3.60;;;;;;;;;;5094276;28;20234;-79